createdAt,value
2022-10-22T00:00:16.941Z,25.71
2022-10-22T00:00:48.405Z,25.73
2022-10-22T00:01:19.858Z,25.75
2022-10-22T00:01:51.251Z,25.82
2022-10-22T00:02:22.755Z,25.80
2022-10-22T00:02:54.239Z,25.77
2022-10-22T00:03:25.697Z,25.76
2022-10-22T00:03:57.142Z,25.76
2022-10-22T00:04:32.939Z,25.79
2022-10-22T00:05:06.798Z,25.76
2022-10-22T00:05:38.244Z,25.83
2022-10-22T00:06:09.725Z,25.84
2022-10-22T00:06:41.150Z,25.89
2022-10-22T00:07:12.612Z,25.91
2022-10-22T00:07:44.298Z,25.91
2022-10-22T00:08:15.750Z,25.90
2022-10-22T00:08:47.197Z,25.86
2022-10-22T00:09:18.822Z,25.89
2022-10-22T00:09:50.417Z,25.93
2022-10-22T00:10:21.883Z,25.89
2022-10-22T00:10:53.350Z,25.88
2022-10-22T00:11:24.962Z,25.91
2022-10-22T00:11:56.425Z,25.93
2022-10-22T00:12:28.015Z,25.95
2022-10-22T00:12:59.467Z,25.98
2022-10-22T00:13:30.893Z,25.98
2022-10-22T00:14:02.360Z,25.97
2022-10-22T00:14:34.033Z,25.98
2022-10-22T00:15:05.508Z,25.98
2022-10-22T00:15:36.924Z,25.95
2022-10-22T00:16:09.023Z,25.92
2022-10-22T00:16:40.439Z,25.91
2022-10-22T00:17:11.921Z,25.89
2022-10-22T00:17:43.541Z,25.95
2022-10-22T00:18:15.044Z,25.94
2022-10-22T00:18:46.680Z,25.93
2022-10-22T00:19:18.199Z,25.92
2022-10-22T00:19:49.643Z,25.93
2022-10-22T00:20:21.067Z,25.91
2022-10-22T00:20:52.563Z,25.92
2022-10-22T00:21:24.188Z,25.93
2022-10-22T00:21:55.625Z,25.90
2022-10-22T00:22:27.064Z,25.89
2022-10-22T00:22:58.558Z,25.93
2022-10-22T00:23:29.933Z,25.95
2022-10-22T00:24:01.431Z,25.94
2022-10-22T00:24:32.840Z,25.94
2022-10-22T00:25:04.283Z,25.93
2022-10-22T00:25:35.775Z,25.91
2022-10-22T00:26:07.181Z,25.85
2022-10-22T00:26:38.623Z,25.86
2022-10-22T00:27:09.999Z,25.86
2022-10-22T00:27:41.692Z,25.88
2022-10-22T00:28:13.420Z,25.87
2022-10-22T00:28:44.841Z,25.85
2022-10-22T00:29:16.285Z,25.78
2022-10-22T00:29:47.720Z,25.78
2022-10-22T00:30:19.126Z,25.77
2022-10-22T00:30:50.578Z,25.84
2022-10-22T00:31:21.980Z,25.83
2022-10-22T00:31:53.366Z,25.79
2022-10-22T00:32:24.825Z,25.80
2022-10-22T00:32:56.256Z,25.81
2022-10-22T00:33:27.792Z,25.84
2022-10-22T00:33:59.206Z,25.82
2022-10-22T00:34:30.788Z,25.83
2022-10-22T00:35:02.185Z,25.78
2022-10-22T00:35:33.688Z,25.81
2022-10-22T00:36:05.132Z,25.80
2022-10-22T00:36:36.616Z,25.78
2022-10-22T00:37:08.018Z,25.79
2022-10-22T00:37:39.950Z,25.79
2022-10-22T00:38:11.429Z,25.79
2022-10-22T00:38:42.915Z,25.74
2022-10-22T00:39:14.316Z,25.74
2022-10-22T00:39:45.733Z,25.73
2022-10-22T00:40:17.145Z,25.74
2022-10-22T00:40:48.509Z,25.73
2022-10-22T00:41:19.960Z,25.74
2022-10-22T00:41:51.426Z,25.77
2022-10-22T00:42:22.844Z,25.71
2022-10-22T00:42:54.314Z,25.72
2022-10-22T00:43:25.699Z,25.77
2022-10-22T00:43:57.072Z,25.75
2022-10-22T00:44:28.501Z,25.74
2022-10-22T00:44:59.956Z,25.80
2022-10-22T00:45:31.403Z,25.80
2022-10-22T00:46:02.794Z,25.76
2022-10-22T00:46:34.264Z,25.73
2022-10-22T00:47:05.658Z,25.74
2022-10-22T00:47:37.078Z,25.77
2022-10-22T00:48:08.529Z,25.74
2022-10-22T00:48:39.929Z,25.74
2022-10-22T00:49:11.360Z,25.71
2022-10-22T00:49:42.785Z,25.71
2022-10-22T00:50:14.180Z,25.71
2022-10-22T00:50:45.594Z,25.74
2022-10-22T00:51:17.178Z,25.74
2022-10-22T00:51:48.716Z,25.77
2022-10-22T00:52:20.110Z,25.72
2022-10-22T00:52:51.699Z,25.76
2022-10-22T00:53:23.208Z,25.73
2022-10-22T00:53:54.691Z,25.70
2022-10-22T00:54:26.115Z,25.70
2022-10-22T00:54:57.520Z,25.67
2022-10-22T00:55:28.998Z,25.64
2022-10-22T00:56:00.449Z,25.66
2022-10-22T00:56:31.970Z,25.67
2022-10-22T00:57:03.503Z,25.68
2022-10-22T00:57:35.036Z,25.67
2022-10-22T00:58:06.444Z,25.68
2022-10-22T00:58:37.872Z,25.70
2022-10-22T00:59:45.605Z,25.68
2022-10-22T01:00:17.006Z,25.68
2022-10-22T01:00:48.497Z,25.71
2022-10-22T01:01:20.101Z,25.70
2022-10-22T01:01:51.694Z,25.70
2022-10-22T01:02:23.203Z,25.72
2022-10-22T01:02:54.610Z,25.69
2022-10-22T01:03:26.144Z,25.71
2022-10-22T01:03:57.527Z,25.69
2022-10-22T01:04:28.958Z,25.68
2022-10-22T01:05:00.385Z,25.66
2022-10-22T01:05:31.802Z,25.67
2022-10-22T01:06:03.222Z,25.67
2022-10-22T01:06:34.714Z,25.67
2022-10-22T01:07:06.106Z,25.66
2022-10-22T01:07:37.607Z,25.67
2022-10-22T01:08:09.053Z,25.64
2022-10-22T01:08:40.447Z,25.64
2022-10-22T01:09:11.883Z,25.62
2022-10-22T01:09:43.273Z,25.61
2022-10-22T01:10:14.705Z,25.64
2022-10-22T01:10:46.143Z,25.63
2022-10-22T01:11:18.114Z,25.65
2022-10-22T01:11:49.558Z,25.67
2022-10-22T01:12:21.016Z,25.66
2022-10-22T01:12:52.466Z,25.64
2022-10-22T01:13:23.978Z,25.70
2022-10-22T01:13:55.447Z,25.64
2022-10-22T01:14:26.853Z,25.66
2022-10-22T01:14:58.225Z,25.65
2022-10-22T01:15:29.649Z,25.67
2022-10-22T01:16:01.072Z,25.67
2022-10-22T01:16:32.505Z,25.66
2022-10-22T01:17:03.911Z,25.66
2022-10-22T01:17:35.344Z,25.65
2022-10-22T01:18:06.777Z,25.65
2022-10-22T01:18:38.208Z,25.63
2022-10-22T01:19:09.630Z,25.61
2022-10-22T01:19:41.032Z,25.61
2022-10-22T01:20:12.472Z,25.61
2022-10-22T01:20:43.896Z,25.66
2022-10-22T01:21:15.399Z,25.60
2022-10-22T01:21:46.864Z,25.61
2022-10-22T01:22:18.225Z,25.63
2022-10-22T01:22:49.632Z,25.60
2022-10-22T01:23:21.021Z,25.61
2022-10-22T01:23:52.492Z,25.63
2022-10-22T01:24:23.883Z,25.60
2022-10-22T01:24:55.265Z,25.58
2022-10-22T01:25:26.654Z,25.60
2022-10-22T01:25:58.066Z,25.59
2022-10-22T01:26:29.508Z,25.62
2022-10-22T01:27:01.127Z,25.60
2022-10-22T01:27:32.565Z,25.63
2022-10-22T01:28:04.044Z,25.58
2022-10-22T01:28:35.436Z,25.58
2022-10-22T01:29:06.840Z,25.60
2022-10-22T01:29:38.242Z,25.63
2022-10-22T01:30:09.696Z,25.59
2022-10-22T01:30:41.101Z,25.60
2022-10-22T01:31:12.484Z,25.65
2022-10-22T01:31:43.918Z,25.62
2022-10-22T01:32:15.394Z,25.61
2022-10-22T01:32:46.787Z,25.63
2022-10-22T01:33:18.241Z,25.64
2022-10-22T01:33:49.679Z,25.66
2022-10-22T01:34:21.103Z,25.65
2022-10-22T01:34:52.540Z,25.68
2022-10-22T01:35:24.028Z,25.65
2022-10-22T01:35:55.601Z,25.64
2022-10-22T01:36:27.068Z,25.64
2022-10-22T01:36:58.641Z,25.66
2022-10-22T01:37:30.113Z,25.65
2022-10-22T01:38:01.571Z,25.63
2022-10-22T01:38:32.963Z,25.62
2022-10-22T01:39:04.369Z,25.59
2022-10-22T01:39:35.768Z,25.63
2022-10-22T01:40:07.180Z,25.56
2022-10-22T01:40:38.604Z,25.62
2022-10-22T01:41:10.029Z,25.63
2022-10-22T01:41:41.493Z,25.64
2022-10-22T01:42:12.962Z,25.64
2022-10-22T01:42:44.411Z,25.65
2022-10-22T01:43:15.852Z,25.60
2022-10-22T01:43:47.237Z,25.61
2022-10-22T01:44:18.956Z,25.63
2022-10-22T01:44:50.359Z,25.63
2022-10-22T01:45:21.812Z,25.64
2022-10-22T01:45:53.256Z,25.62
2022-10-22T01:46:24.811Z,25.62
2022-10-22T01:46:56.248Z,25.61
2022-10-22T01:47:27.722Z,25.57
2022-10-22T01:47:59.309Z,25.59
2022-10-22T01:48:30.742Z,25.58
2022-10-22T01:49:02.182Z,25.60
2022-10-22T01:49:33.725Z,25.61
2022-10-22T01:50:05.218Z,25.61
2022-10-22T01:50:36.617Z,25.63
2022-10-22T01:51:08.032Z,25.62
2022-10-22T01:51:39.445Z,25.62
2022-10-22T01:52:10.872Z,25.61
2022-10-22T01:52:42.352Z,25.62
2022-10-22T01:53:13.724Z,25.61
2022-10-22T01:54:16.500Z,25.61
2022-10-22T01:54:47.978Z,25.63
2022-10-22T01:55:19.423Z,25.60
2022-10-22T01:55:50.855Z,25.57
2022-10-22T01:56:22.341Z,25.58
2022-10-22T01:56:53.755Z,25.54
2022-10-22T01:57:25.177Z,25.60
2022-10-22T01:57:56.773Z,25.62
2022-10-22T01:58:28.171Z,25.60
2022-10-22T01:58:59.619Z,25.61
2022-10-22T01:59:31.049Z,25.59
2022-10-22T02:00:02.478Z,25.62
2022-10-22T02:00:33.919Z,25.58
2022-10-22T02:01:05.550Z,25.58
2022-10-22T02:01:37.047Z,25.58
2022-10-22T02:02:08.941Z,25.54
2022-10-22T02:02:40.363Z,25.55
2022-10-22T02:03:11.910Z,25.54
2022-10-22T02:03:43.295Z,25.55
2022-10-22T02:04:14.669Z,25.56
2022-10-22T02:04:46.085Z,25.58
2022-10-22T02:05:17.572Z,25.59
2022-10-22T02:05:49.032Z,25.58
2022-10-22T02:06:20.445Z,25.56
2022-10-22T02:06:51.834Z,25.57
2022-10-22T02:07:23.233Z,25.53
2022-10-22T02:07:54.663Z,25.53
2022-10-22T02:08:26.260Z,25.55
2022-10-22T02:08:57.699Z,25.57
2022-10-22T02:09:29.258Z,25.59
2022-10-22T02:10:00.656Z,25.56
2022-10-22T02:10:32.041Z,25.55
2022-10-22T02:11:03.548Z,25.54
2022-10-22T02:11:34.981Z,25.56
2022-10-22T02:12:43.068Z,25.56
2022-10-22T02:13:14.723Z,25.54
2022-10-22T02:13:46.112Z,25.52
2022-10-22T02:14:17.879Z,25.54
2022-10-22T02:14:49.361Z,25.54
2022-10-22T02:15:20.734Z,25.58
2022-10-22T02:15:52.144Z,25.56
2022-10-22T02:16:23.534Z,25.57
2022-10-22T02:16:54.960Z,25.56
2022-10-22T02:17:26.390Z,25.56
2022-10-22T02:17:57.833Z,25.55
2022-10-22T02:18:29.275Z,25.53
2022-10-22T02:19:00.904Z,25.55
2022-10-22T02:19:32.356Z,25.56
2022-10-22T02:20:03.825Z,25.56
2022-10-22T02:20:35.314Z,25.53
2022-10-22T02:21:39.201Z,25.53
2022-10-22T02:22:10.596Z,25.52
2022-10-22T02:22:42.431Z,25.55
2022-10-22T02:23:14.184Z,25.53
2022-10-22T02:23:45.666Z,25.54
2022-10-22T02:24:17.051Z,25.55
2022-10-22T02:24:48.437Z,25.50
2022-10-22T02:25:19.811Z,25.50
2022-10-22T02:25:51.358Z,25.52
2022-10-22T02:26:22.807Z,25.52
2022-10-22T02:26:54.244Z,25.55
2022-10-22T02:27:26.942Z,25.55
2022-10-22T02:27:58.687Z,25.52
2022-10-22T02:28:30.115Z,25.55
2022-10-22T02:29:01.585Z,25.56
2022-10-22T02:29:32.972Z,25.58
2022-10-22T02:30:04.512Z,25.58
2022-10-22T02:30:35.975Z,25.58
2022-10-22T02:31:07.395Z,25.61
2022-10-22T02:31:38.823Z,25.56
2022-10-22T02:32:10.258Z,25.51
2022-10-22T02:32:41.911Z,25.52
2022-10-22T02:33:13.637Z,25.54
2022-10-22T02:33:45.081Z,25.55
2022-10-22T02:34:16.520Z,25.52
2022-10-22T02:34:47.977Z,25.54
2022-10-22T02:35:19.385Z,25.53
2022-10-22T02:35:50.765Z,25.54
2022-10-22T02:36:22.192Z,25.54
2022-10-22T02:36:53.619Z,25.52
2022-10-22T02:37:25.041Z,25.54
2022-10-22T02:37:56.397Z,25.52
2022-10-22T02:38:27.906Z,25.50
2022-10-22T02:38:59.311Z,25.51
2022-10-22T02:39:30.779Z,25.50
2022-10-22T02:40:02.189Z,25.51
2022-10-22T02:40:33.698Z,25.51
2022-10-22T02:41:05.195Z,25.51
2022-10-22T02:41:36.626Z,25.53
2022-10-22T02:42:08.087Z,25.49
2022-10-22T02:42:39.717Z,25.49
2022-10-22T02:43:11.338Z,25.50
2022-10-22T02:43:42.766Z,25.56
2022-10-22T02:44:14.196Z,25.54
2022-10-22T02:44:45.631Z,25.53
2022-10-22T02:45:17.132Z,25.53
2022-10-22T02:45:48.562Z,25.50
2022-10-22T02:46:20.209Z,25.52
2022-10-22T02:46:51.781Z,25.51
2022-10-22T02:47:23.205Z,25.52
2022-10-22T02:47:54.699Z,25.54
2022-10-22T02:48:26.154Z,25.56
2022-10-22T02:48:57.544Z,25.55
2022-10-22T02:49:28.998Z,25.57
2022-10-22T02:50:00.362Z,25.57
2022-10-22T02:50:31.801Z,25.55
2022-10-22T02:51:03.217Z,25.55
2022-10-22T02:51:34.715Z,25.53
2022-10-22T02:52:06.214Z,25.52
2022-10-22T02:52:37.858Z,25.56
2022-10-22T02:53:09.637Z,25.53
2022-10-22T02:53:41.057Z,25.54
2022-10-22T02:54:12.496Z,25.55
2022-10-22T02:54:43.925Z,25.52
2022-10-22T02:55:15.360Z,25.52
2022-10-22T02:55:46.770Z,25.52
2022-10-22T02:56:18.212Z,25.53
2022-10-22T02:56:49.697Z,25.54
2022-10-22T02:57:57.383Z,25.51
2022-10-22T02:58:28.797Z,25.54
2022-10-22T02:59:00.158Z,25.56
2022-10-22T02:59:31.594Z,25.57
2022-10-22T03:00:03.021Z,25.54
2022-10-22T03:00:34.463Z,25.53
2022-10-22T03:01:05.956Z,25.57
2022-10-22T03:01:37.480Z,25.57
2022-10-22T03:02:09.521Z,25.51
2022-10-22T03:02:41.033Z,25.53
2022-10-22T03:03:12.454Z,25.52
2022-10-22T03:03:43.864Z,25.56
2022-10-22T03:04:15.339Z,25.55
2022-10-22T03:04:46.787Z,25.54
2022-10-22T03:05:18.183Z,25.57
2022-10-22T03:05:49.615Z,25.58
2022-10-22T03:06:21.012Z,25.56
2022-10-22T03:06:52.489Z,25.49
2022-10-22T03:07:23.953Z,25.55
2022-10-22T03:07:55.389Z,25.53
2022-10-22T03:08:26.889Z,25.54
2022-10-22T03:08:58.322Z,25.51
2022-10-22T03:09:29.774Z,25.47
2022-10-22T03:10:01.213Z,25.45
2022-10-22T03:10:32.657Z,25.45
2022-10-22T03:11:04.080Z,25.47
2022-10-22T03:11:35.533Z,25.44
2022-10-22T03:12:06.986Z,25.45
2022-10-22T03:12:38.512Z,25.45
2022-10-22T03:13:09.967Z,25.44
2022-10-22T03:13:41.382Z,25.43
2022-10-22T03:14:12.878Z,25.43
2022-10-22T03:14:44.383Z,25.45
2022-10-22T03:15:15.855Z,25.43
2022-10-22T03:15:47.319Z,25.42
2022-10-22T03:16:18.715Z,25.50
2022-10-22T03:16:50.119Z,25.46
2022-10-22T03:17:21.534Z,25.47
2022-10-22T03:17:53.035Z,25.49
2022-10-22T03:18:24.414Z,25.51
2022-10-22T03:18:55.851Z,25.52
2022-10-22T03:19:27.315Z,25.48
2022-10-22T03:19:58.743Z,25.50
2022-10-22T03:20:30.159Z,25.51
2022-10-22T03:21:01.609Z,25.49
2022-10-22T03:21:33.167Z,25.47
2022-10-22T03:22:04.599Z,25.48
2022-10-22T03:22:36.051Z,25.48
2022-10-22T03:23:07.627Z,25.47
2022-10-22T03:23:39.083Z,25.44
2022-10-22T03:24:10.534Z,25.43
2022-10-22T03:24:41.896Z,25.45
2022-10-22T03:25:13.330Z,25.45
2022-10-22T03:25:44.742Z,25.42
2022-10-22T03:26:16.115Z,25.45
2022-10-22T03:26:47.523Z,25.49
2022-10-22T03:27:18.939Z,25.48
2022-10-22T03:27:50.442Z,25.51
2022-10-22T03:28:21.879Z,25.51
2022-10-22T03:28:53.307Z,25.49
2022-10-22T03:29:24.787Z,25.49
2022-10-22T03:29:56.146Z,25.49
2022-10-22T03:30:27.657Z,25.51
2022-10-22T03:30:59.070Z,25.53
2022-10-22T03:31:30.465Z,25.52
2022-10-22T03:32:01.914Z,25.51
2022-10-22T03:32:33.313Z,25.52
2022-10-22T03:33:04.742Z,25.51
2022-10-22T03:33:36.218Z,25.52
2022-10-22T03:34:07.639Z,25.50
2022-10-22T03:34:39.064Z,25.48
2022-10-22T03:35:10.515Z,25.49
2022-10-22T03:35:41.996Z,25.51
2022-10-22T03:36:13.408Z,25.49
2022-10-22T03:36:44.802Z,25.46
2022-10-22T03:37:16.262Z,25.46
2022-10-22T03:37:47.744Z,25.47
2022-10-22T03:38:19.225Z,25.49
2022-10-22T03:38:50.673Z,25.47
2022-10-22T03:39:22.127Z,25.49
2022-10-22T03:39:53.540Z,25.49
2022-10-22T03:40:24.956Z,25.48
2022-10-22T03:40:56.407Z,25.50
2022-10-22T03:41:27.807Z,25.48
2022-10-22T03:41:59.226Z,25.51
2022-10-22T03:42:30.652Z,25.51
2022-10-22T03:43:02.055Z,25.48
2022-10-22T03:43:33.546Z,25.46
2022-10-22T03:44:05.056Z,25.49
2022-10-22T03:44:36.482Z,25.48
2022-10-22T03:45:07.860Z,25.47
2022-10-22T03:45:39.340Z,25.46
2022-10-22T03:46:10.748Z,25.49
2022-10-22T03:46:42.197Z,25.47
2022-10-22T03:47:13.622Z,25.49
2022-10-22T03:47:45.039Z,25.46
2022-10-22T03:48:16.441Z,25.49
2022-10-22T03:48:47.886Z,25.48
2022-10-22T03:49:19.341Z,25.50
2022-10-22T03:49:50.819Z,25.49
2022-10-22T03:50:22.210Z,25.47
2022-10-22T03:50:53.599Z,25.50
2022-10-22T03:51:24.989Z,25.48
2022-10-22T03:51:56.383Z,25.46
2022-10-22T03:52:27.802Z,25.49
2022-10-22T03:52:59.280Z,25.51
2022-10-22T03:53:30.662Z,25.51
2022-10-22T03:54:02.143Z,25.51
2022-10-22T03:54:33.745Z,25.49
2022-10-22T03:55:05.229Z,25.48
2022-10-22T03:55:36.650Z,25.46
2022-10-22T03:56:08.079Z,25.51
2022-10-22T03:56:39.602Z,25.49
2022-10-22T03:57:11.059Z,25.48
2022-10-22T03:57:42.678Z,25.49
2022-10-22T03:58:14.311Z,25.48
2022-10-22T03:58:45.721Z,25.44
2022-10-22T03:59:17.172Z,25.47
2022-10-22T03:59:48.696Z,25.50
2022-10-22T04:00:20.124Z,25.49
2022-10-22T04:00:51.711Z,25.48
2022-10-22T04:01:23.186Z,25.47
2022-10-22T04:01:54.657Z,25.47
2022-10-22T04:02:26.078Z,25.47
2022-10-22T04:02:57.521Z,25.49
2022-10-22T04:03:28.983Z,25.47
2022-10-22T04:04:00.410Z,25.47
2022-10-22T04:04:31.822Z,25.51
2022-10-22T04:05:03.387Z,25.46
2022-10-22T04:05:34.890Z,25.46
2022-10-22T04:06:06.323Z,25.46
2022-10-22T04:06:37.786Z,25.44
2022-10-22T04:07:09.226Z,25.48
2022-10-22T04:07:40.807Z,25.48
2022-10-22T04:08:12.497Z,25.49
2022-10-22T04:08:44.013Z,25.45
2022-10-22T04:09:15.483Z,25.48
2022-10-22T04:09:46.989Z,25.49
2022-10-22T04:10:18.390Z,25.47
2022-10-22T04:10:49.797Z,25.43
2022-10-22T04:11:21.303Z,25.46
2022-10-22T04:11:52.779Z,25.47
2022-10-22T04:12:24.212Z,25.45
2022-10-22T04:12:55.641Z,25.48
2022-10-22T04:13:27.028Z,25.46
2022-10-22T04:13:58.421Z,25.47
2022-10-22T04:14:29.867Z,25.48
2022-10-22T04:15:01.312Z,25.50
2022-10-22T04:15:32.792Z,25.51
2022-10-22T04:16:04.330Z,25.52
2022-10-22T04:16:35.718Z,25.52
2022-10-22T04:17:07.115Z,25.47
2022-10-22T04:17:38.781Z,25.50
2022-10-22T04:18:10.523Z,25.46
2022-10-22T04:18:41.930Z,25.48
2022-10-22T04:19:13.354Z,25.47
2022-10-22T04:19:44.711Z,25.50
2022-10-22T04:20:16.127Z,25.49
2022-10-22T04:20:47.578Z,25.50
2022-10-22T04:21:19.058Z,25.49
2022-10-22T04:21:50.521Z,25.48
2022-10-22T04:22:21.955Z,25.47
2022-10-22T04:22:53.433Z,25.47
2022-10-22T04:23:24.806Z,25.48
2022-10-22T04:23:56.215Z,25.47
2022-10-22T04:24:27.644Z,25.46
2022-10-22T04:24:59.098Z,25.46
2022-10-22T04:25:30.520Z,25.45
2022-10-22T04:26:02.126Z,25.48
2022-10-22T04:26:33.611Z,25.51
2022-10-22T04:27:05.057Z,25.52
2022-10-22T04:27:36.484Z,25.50
2022-10-22T04:28:07.939Z,25.49
2022-10-22T04:28:39.362Z,25.51
2022-10-22T04:29:13.574Z,25.49
2022-10-22T04:29:47.466Z,25.47
2022-10-22T04:30:18.891Z,25.48
2022-10-22T04:30:50.327Z,25.49
2022-10-22T04:31:21.841Z,25.51
2022-10-22T04:31:53.363Z,25.47
2022-10-22T04:32:24.778Z,25.45
2022-10-22T04:32:56.273Z,25.43
2022-10-22T04:33:27.614Z,25.43
2022-10-22T04:33:59.046Z,25.44
2022-10-22T04:34:30.437Z,25.45
2022-10-22T04:35:01.838Z,25.42
2022-10-22T04:35:33.219Z,25.43
2022-10-22T04:36:04.609Z,25.45
2022-10-22T04:36:36.030Z,25.45
2022-10-22T04:37:07.502Z,25.42
2022-10-22T04:37:39.332Z,25.42
2022-10-22T04:38:10.970Z,25.42
2022-10-22T04:38:42.387Z,25.45
2022-10-22T04:39:13.801Z,25.43
2022-10-22T04:39:45.266Z,25.39
2022-10-22T04:40:16.716Z,25.46
2022-10-22T04:40:48.112Z,25.42
2022-10-22T04:41:19.544Z,25.37
2022-10-22T04:41:51.015Z,25.41
2022-10-22T04:42:22.387Z,25.39
2022-10-22T04:42:53.831Z,25.42
2022-10-22T04:43:25.259Z,25.41
2022-10-22T04:43:56.797Z,25.38
2022-10-22T04:44:28.573Z,25.39
2022-10-22T04:45:00.090Z,25.42
2022-10-22T04:45:31.515Z,25.41
2022-10-22T04:46:02.940Z,25.42
2022-10-22T04:46:34.366Z,25.40
2022-10-22T04:47:05.828Z,25.41
2022-10-22T04:47:37.357Z,25.46
2022-10-22T04:48:09.050Z,25.45
2022-10-22T04:48:40.476Z,25.45
2022-10-22T04:49:12.046Z,25.42
2022-10-22T04:49:43.440Z,25.39
2022-10-22T04:50:14.844Z,25.40
2022-10-22T04:50:46.200Z,25.39
2022-10-22T04:51:17.646Z,25.39
2022-10-22T04:51:49.135Z,25.39
2022-10-22T04:52:20.674Z,25.41
2022-10-22T04:52:52.115Z,25.41
2022-10-22T04:53:23.511Z,25.39
2022-10-22T04:53:54.882Z,25.37
2022-10-22T04:54:29.048Z,25.37
2022-10-22T04:55:03.627Z,25.38
2022-10-22T04:55:35.048Z,25.37
2022-10-22T04:56:06.552Z,25.40
2022-10-22T04:56:37.969Z,25.35
2022-10-22T04:57:09.492Z,25.37
2022-10-22T04:57:41.256Z,25.40
2022-10-22T04:58:12.895Z,25.44
2022-10-22T04:58:44.285Z,25.42
2022-10-22T04:59:15.721Z,25.39
2022-10-22T04:59:47.193Z,25.41
2022-10-22T05:00:18.627Z,25.46
2022-10-22T05:00:50.078Z,25.39
2022-10-22T05:01:21.564Z,25.43
2022-10-22T05:01:53.060Z,25.41
2022-10-22T05:02:24.560Z,25.39
2022-10-22T05:02:56.047Z,25.37
2022-10-22T05:03:27.491Z,25.39
2022-10-22T05:03:58.953Z,25.42
2022-10-22T05:04:30.403Z,25.42
2022-10-22T05:05:01.878Z,25.39
2022-10-22T05:05:33.298Z,25.40
2022-10-22T05:06:04.769Z,25.42
2022-10-22T05:06:36.197Z,25.42
2022-10-22T05:07:07.617Z,25.46
2022-10-22T05:07:39.368Z,25.46
2022-10-22T05:08:11.014Z,25.45
2022-10-22T05:08:42.482Z,25.41
2022-10-22T05:09:14.011Z,25.39
2022-10-22T05:09:45.517Z,25.42
2022-10-22T05:10:16.933Z,25.43
2022-10-22T05:10:48.358Z,25.43
2022-10-22T05:11:19.822Z,25.43
2022-10-22T05:11:51.240Z,25.47
2022-10-22T05:12:22.688Z,25.46
2022-10-22T05:12:54.112Z,25.47
2022-10-22T05:13:25.655Z,25.43
2022-10-22T05:13:57.117Z,25.44
2022-10-22T05:14:28.664Z,25.42
2022-10-22T05:15:00.058Z,25.47
2022-10-22T05:15:31.546Z,25.45
2022-10-22T05:16:02.986Z,25.46
2022-10-22T05:16:34.432Z,25.45
2022-10-22T05:17:05.952Z,25.48
2022-10-22T05:17:37.567Z,25.45
2022-10-22T05:18:09.089Z,25.45
2022-10-22T05:18:40.639Z,25.41
2022-10-22T05:19:12.049Z,25.45
2022-10-22T05:19:43.409Z,25.46
2022-10-22T05:20:14.772Z,25.43
2022-10-22T05:20:46.174Z,25.45
2022-10-22T05:21:17.630Z,25.43
2022-10-22T05:21:49.097Z,25.45
2022-10-22T05:22:20.504Z,25.40
2022-10-22T05:22:51.952Z,25.44
2022-10-22T05:23:23.351Z,25.39
2022-10-22T05:23:54.811Z,25.39
2022-10-22T05:24:26.319Z,25.42
2022-10-22T05:24:57.791Z,25.40
2022-10-22T05:25:29.250Z,25.41
2022-10-22T05:26:00.679Z,25.43
2022-10-22T05:26:32.163Z,25.43
2022-10-22T05:27:03.565Z,25.40
2022-10-22T05:27:34.996Z,25.45
2022-10-22T05:28:06.416Z,25.47
2022-10-22T05:28:37.830Z,25.43
2022-10-22T05:29:09.364Z,25.42
2022-10-22T05:29:40.795Z,25.44
2022-10-22T05:30:12.277Z,25.43
2022-10-22T05:30:43.700Z,25.39
2022-10-22T05:31:15.109Z,25.45
2022-10-22T05:31:46.611Z,25.42
2022-10-22T05:32:17.981Z,25.40
2022-10-22T05:32:49.400Z,25.38
2022-10-22T05:33:23.999Z,25.37
2022-10-22T05:33:55.679Z,25.39
2022-10-22T05:34:27.159Z,25.35
2022-10-22T05:34:58.611Z,25.38
2022-10-22T05:35:30.094Z,25.42
2022-10-22T05:36:01.511Z,25.41
2022-10-22T05:36:32.889Z,25.39
2022-10-22T05:37:04.318Z,25.38
2022-10-22T05:37:35.754Z,25.38
2022-10-22T05:38:07.183Z,25.38
2022-10-22T05:38:38.597Z,25.39
2022-10-22T05:39:10.058Z,25.39
2022-10-22T05:39:41.552Z,25.41
2022-10-22T05:40:26.486Z,25.38
2022-10-22T05:41:01.716Z,25.36
2022-10-22T05:41:33.214Z,25.36
2022-10-22T05:42:04.742Z,25.38
2022-10-22T05:42:36.287Z,25.39
2022-10-22T05:43:07.707Z,25.38
2022-10-22T05:43:39.173Z,25.35
2022-10-22T05:44:10.566Z,25.37
2022-10-22T05:44:42.104Z,25.42
2022-10-22T05:45:13.580Z,25.39
2022-10-22T05:45:45.119Z,25.42
2022-10-22T05:46:21.249Z,25.39
2022-10-22T05:46:53.821Z,25.44
2022-10-22T05:47:25.265Z,25.45
2022-10-22T05:47:56.643Z,25.40
2022-10-22T05:48:28.103Z,25.39
2022-10-22T05:48:59.533Z,25.38
2022-10-22T05:49:30.891Z,25.41
2022-10-22T05:50:02.405Z,25.38
2022-10-22T05:50:33.820Z,25.40
2022-10-22T05:51:05.209Z,25.42
2022-10-22T05:51:36.723Z,25.41
2022-10-22T05:52:08.073Z,25.39
2022-10-22T05:52:39.651Z,25.39
2022-10-22T05:53:11.240Z,25.39
2022-10-22T05:53:42.723Z,25.39
2022-10-22T05:54:14.152Z,25.40
2022-10-22T05:54:45.563Z,25.42
2022-10-22T05:55:16.983Z,25.38
2022-10-22T05:55:48.414Z,25.40
2022-10-22T05:56:19.810Z,25.38
2022-10-22T05:56:51.242Z,25.35
2022-10-22T05:57:22.642Z,25.38
2022-10-22T05:57:54.017Z,25.41
2022-10-22T05:58:25.448Z,25.37
2022-10-22T05:58:56.986Z,25.38
2022-10-22T05:59:28.431Z,25.41
2022-10-22T05:59:59.875Z,25.38
2022-10-22T06:00:31.365Z,25.38
2022-10-22T06:01:02.757Z,25.41
2022-10-22T06:01:34.207Z,25.38
2022-10-22T06:02:05.656Z,25.43
2022-10-22T06:02:37.179Z,25.38
2022-10-22T06:03:08.678Z,25.39
2022-10-22T06:03:40.199Z,25.45
2022-10-22T06:04:11.651Z,25.40
2022-10-22T06:04:43.058Z,25.39
2022-10-22T06:05:14.465Z,25.41
2022-10-22T06:05:45.970Z,25.41
2022-10-22T06:06:17.389Z,25.37
2022-10-22T06:06:48.836Z,25.39
2022-10-22T06:07:20.234Z,25.38
2022-10-22T06:07:51.650Z,25.40
2022-10-22T06:08:23.059Z,25.41
2022-10-22T06:08:54.540Z,25.41
2022-10-22T06:09:26.027Z,25.36
2022-10-22T06:09:57.474Z,25.39
2022-10-22T06:10:28.976Z,25.41
2022-10-22T06:11:00.474Z,25.41
2022-10-22T06:11:34.315Z,25.42
2022-10-22T06:12:06.802Z,25.39
2022-10-22T06:12:38.500Z,25.39
2022-10-22T06:13:10.102Z,25.37
2022-10-22T06:13:41.570Z,25.37
2022-10-22T06:14:12.975Z,25.37
2022-10-22T06:14:44.383Z,25.39
2022-10-22T06:15:15.798Z,25.38
2022-10-22T06:15:47.216Z,25.33
2022-10-22T06:16:18.604Z,25.34
2022-10-22T06:16:50.142Z,25.32
2022-10-22T06:17:21.558Z,25.33
2022-10-22T06:17:53.055Z,25.34
2022-10-22T06:18:24.460Z,25.36
2022-10-22T06:18:55.910Z,25.34
2022-10-22T06:19:27.308Z,25.29
2022-10-22T06:19:58.786Z,25.24
2022-10-22T06:20:30.318Z,25.27
2022-10-22T06:21:01.692Z,25.29
2022-10-22T06:21:33.140Z,25.28
2022-10-22T06:22:04.635Z,25.26
2022-10-22T06:22:36.059Z,25.28
2022-10-22T06:23:07.463Z,25.30
2022-10-22T06:23:38.914Z,25.32
2022-10-22T06:24:10.319Z,25.29
2022-10-22T06:24:45.017Z,25.31
2022-10-22T06:25:16.712Z,25.35
2022-10-22T06:25:48.148Z,25.36
2022-10-22T06:26:19.517Z,25.34
2022-10-22T06:26:50.944Z,25.33
2022-10-22T06:27:22.446Z,25.34
2022-10-22T06:27:53.867Z,25.35
2022-10-22T06:28:25.274Z,25.33
2022-10-22T06:28:56.741Z,25.24
2022-10-22T06:29:28.120Z,25.27
2022-10-22T06:29:59.556Z,25.26
2022-10-22T06:30:31.001Z,25.27
2022-10-22T06:31:02.485Z,25.30
2022-10-22T06:31:33.901Z,25.36
2022-10-22T06:32:05.347Z,25.34
2022-10-22T06:32:36.761Z,25.37
2022-10-22T06:33:08.160Z,25.36
2022-10-22T06:33:39.577Z,25.33
2022-10-22T06:34:10.959Z,25.34
2022-10-22T06:34:42.340Z,25.34
2022-10-22T06:35:13.707Z,25.36
2022-10-22T06:35:45.115Z,25.36
2022-10-22T06:36:16.519Z,25.36
2022-10-22T06:36:48.041Z,25.33
2022-10-22T06:37:19.441Z,25.32
2022-10-22T06:37:50.920Z,25.29
2022-10-22T06:38:22.350Z,25.25
2022-10-22T06:38:53.774Z,25.23
2022-10-22T06:39:25.396Z,25.21
2022-10-22T06:39:56.867Z,25.27
2022-10-22T06:40:28.322Z,25.28
2022-10-22T06:40:59.705Z,25.29
2022-10-22T06:41:31.092Z,25.31
2022-10-22T06:42:02.516Z,25.31
2022-10-22T06:42:33.961Z,25.30
2022-10-22T06:43:05.470Z,25.31
2022-10-22T06:43:36.934Z,25.30
2022-10-22T06:44:08.420Z,25.29
2022-10-22T06:44:40.006Z,25.29
2022-10-22T06:45:11.459Z,25.30
2022-10-22T06:45:42.847Z,25.28
2022-10-22T06:46:17.433Z,25.26
2022-10-22T06:46:51.422Z,25.24
2022-10-22T06:47:22.834Z,25.18
2022-10-22T06:47:54.248Z,25.18
2022-10-22T06:48:25.772Z,25.22
2022-10-22T06:48:57.195Z,25.20